»·PEaware :: N872G KCXP-KBUR

N872G :: KCXP-KBUR

FLIGHT INFORMATION

Flight Status: Arrived
Operator: Privately registered:
United States
More flights under this callsign
Pilot: Gabor H. (24209)
Aircraft: CESSNA 510 CITATION MUSTANG
(C510)
More flights by this aircraft type
Origin: KCXP Carson
United States
Destination: KBUR Bob Hope-Burbank
United States
More flights between these airports :: More routes between these airports
Route: SONNY J5 EHF T259 LHS LYNXX8
File this flight plan on PilotEdge
Remarks:
Altitude:
(Current/Filed)
29,000ft
Speed:
(Current/Filed)
340kts
Departed: 17-Aug-21 05:11 PM
Arrived: 17-Aug-21 06:13 PM
Distance/Time
Traveled:
307nm/1:02
Distance/Time
To Go:
Arrived

Flight Plot

Page will automatically refresh every two minutes.

Flight plan parsing failed; only flown route is shown


Map Options




Map Legend


Flown Route
Filed Route
Departure Airport
Arrival Airport
Navaid (VOR, NDB)
Fix

Horizontal Profiles

Position Reports

Time Latitude Longitude Heading Altitude Ground
Speed
17-Aug-21 16:50 39.196778 -119.745949 88 4711ft 0kts
17-Aug-21 16:51 39.196778 -119.745949 88 4711ft 0kts
17-Aug-21 16:52 39.196778 -119.745949 88 4711ft 0kts
17-Aug-21 16:53 39.196778 -119.745949 88 4711ft 0kts
17-Aug-21 16:54 39.196778 -119.745949 88 4711ft 0kts
17-Aug-21 16:55 39.196778 -119.745949 88 4711ft 0kts
17-Aug-21 16:56 39.196778 -119.745949 88 4711ft 0kts
17-Aug-21 16:57 39.196778 -119.745949 88 4711ft 0kts
17-Aug-21 16:58 39.196398 -119.745588 155 4710ft 6kts
17-Aug-21 16:59 39.195200 -119.743796 98 4706ft 9kts
17-Aug-21 17:00 39.195236 -119.742840 157 4707ft 0kts
17-Aug-21 17:01 39.195236 -119.742840 157 4707ft 0kts
17-Aug-21 17:02 39.194691 -119.740961 104 4706ft 18kts
17-Aug-21 17:03 39.193853 -119.736485 105 4708ft 12kts
17-Aug-21 17:04 39.192824 -119.730835 100 4702ft 12kts
17-Aug-21 17:05 39.191939 -119.726136 101 4699ft 14kts
17-Aug-21 17:06 39.191118 -119.722091 154 4677ft 0kts
17-Aug-21 17:07 39.191118 -119.722091 154 4677ft 0kts
17-Aug-21 17:08 39.191118 -119.722090 154 4677ft 0kts
17-Aug-21 17:09 39.190449 -119.722451 283 4678ft 0kts
17-Aug-21 17:10 39.192785 -119.752016 243 5671ft 154kts
17-Aug-21 17:11 39.141690 -119.747347 170 8033ft 234kts
17-Aug-21 17:12 39.077801 -119.726548 170 10798ft 249kts
17-Aug-21 17:13 39.008663 -119.703979 170 13221ft 262kts
17-Aug-21 17:14 38.936815 -119.680110 170 15472ft 272kts
17-Aug-21 17:15 38.864046 -119.656170 171 17471ft 281kts
17-Aug-21 17:16 38.787177 -119.631146 171 19277ft 291kts
17-Aug-21 17:17 38.707742 -119.605242 171 20915ft 301kts
17-Aug-21 17:18 38.625565 -119.578549 171 22414ft 309kts
17-Aug-21 17:19 38.541165 -119.551062 171 23766ft 318kts
17-Aug-21 17:20 38.455025 -119.523150 170 25085ft 323kts
17-Aug-21 17:21 38.367406 -119.494779 170 26407ft 327kts
17-Aug-21 17:22 38.278373 -119.476367 178 27711ft 326kts
17-Aug-21 17:23 38.187298 -119.463655 178 28829ft 334kts
17-Aug-21 17:24 38.093134 -119.450506 178 29080ft 347kts
17-Aug-21 17:25 37.996508 -119.436961 178 29116ft 353kts
17-Aug-21 17:26 37.898982 -119.423440 177 29116ft 358kts
17-Aug-21 17:27 37.798956 -119.409440 177 29112ft 359kts
17-Aug-21 17:28 37.700086 -119.395656 177 29112ft 359kts
17-Aug-21 17:29 37.600865 -119.381944 177 29112ft 359kts
17-Aug-21 17:30 37.501456 -119.368207 177 29045ft 361kts
17-Aug-21 17:31 37.401936 -119.354490 177 29002ft 360kts
17-Aug-21 17:32 37.303828 -119.341014 178 29017ft 358kts
17-Aug-21 17:33 37.204849 -119.327480 177 28932ft 360kts
17-Aug-21 17:34 37.105499 -119.313895 177 28766ft 361kts
17-Aug-21 17:35 37.005905 -119.300295 177 28761ft 358kts
17-Aug-21 17:36 36.907412 -119.286947 177 28762ft 357kts
17-Aug-21 17:37 36.808791 -119.273589 177 28759ft 356kts
17-Aug-21 17:38 36.710700 -119.260274 177 28760ft 356kts
17-Aug-21 17:39 36.612606 -119.247076 177 28759ft 356kts
17-Aug-21 17:40 36.514041 -119.233780 177 28748ft 356kts
17-Aug-21 17:41 36.415725 -119.220637 176 28742ft 356kts
17-Aug-21 17:42 36.317315 -119.207430 176 28755ft 356kts
17-Aug-21 17:43 36.219404 -119.194345 177 28771ft 356kts
17-Aug-21 17:44 36.120834 -119.181219 177 28771ft 356kts
17-Aug-21 17:45 36.022733 -119.168223 176 28772ft 356kts
17-Aug-21 17:46 35.924381 -119.155353 176 28765ft 355kts
17-Aug-21 17:47 35.827875 -119.142460 176 28753ft 355kts
17-Aug-21 17:48 35.730064 -119.129517 176 28742ft 354kts
17-Aug-21 17:49 35.632117 -119.116675 176 28737ft 353kts
17-Aug-21 17:50 35.530645 -119.103450 175 27206ft 382kts
17-Aug-21 17:51 35.433100 -119.063998 152 24998ft 368kts
17-Aug-21 17:52 35.344316 -119.005507 152 23031ft 360kts
17-Aug-21 17:53 35.257500 -118.948515 153 21145ft 349kts
17-Aug-21 17:54 35.173439 -118.893727 153 19331ft 339kts
17-Aug-21 17:55 35.092144 -118.840860 154 17580ft 321kts
17-Aug-21 17:56 35.014644 -118.790708 154 15929ft 313kts
17-Aug-21 17:57 34.938169 -118.741332 154 14294ft 312kts
17-Aug-21 17:58 34.862771 -118.692618 154 12676ft 306kts
17-Aug-21 17:59 34.788148 -118.644620 154 11078ft 302kts
17-Aug-21 18:00 34.715123 -118.597682 154 9503ft 281kts
17-Aug-21 18:01 34.645587 -118.581241 186 9003ft 257kts
17-Aug-21 18:02 34.574910 -118.588412 186 7853ft 244kts
17-Aug-21 18:03 34.510128 -118.594477 180 7000ft 230kts
17-Aug-21 18:04 34.443235 -118.596410 183 5868ft 245kts
17-Aug-21 18:05 34.381209 -118.571717 135 4559ft 236kts
17-Aug-21 18:06 34.341375 -118.515484 121 4000ft 210kts
17-Aug-21 18:07 34.325322 -118.447274 94 3747ft 208kts
17-Aug-21 18:08 34.309967 -118.391389 159 2883ft 143kts
17-Aug-21 18:09 34.272050 -118.378225 162 1989ft 150kts
17-Aug-21 18:10 34.232747 -118.366427 163 1348ft 133kts
17-Aug-21 18:11 34.202622 -118.357824 166 781ft 58kts
17-Aug-21 18:12 34.198812 -118.357794 226 781ft 0kts
17-Aug-21 18:13 34.196699 -118.357955 174 781ft 14kts
17-Aug-21 18:14 34.194609 -118.358427 53 781ft 0kts
17-Aug-21 18:15 34.194609 -118.358427 53 781ft 0kts
17-Aug-21 18:17 34.194609 -118.358427 53 781ft 0kts
17-Aug-21 18:18 34.194609 -118.358427 53 781ft 0kts
17-Aug-21 18:19 34.194609 -118.358427 53 781ft 0kts

Navigation Log

Ident Type
Flight plan parsing failed, navigation log unavailable